createdAt,value
2023-03-04T00:00:19.000Z,73.10
2023-03-04T00:01:18.000Z,72.80
2023-03-04T00:02:18.000Z,72.64
2023-03-04T00:03:18.000Z,73.21
2023-03-04T00:04:18.000Z,73.11
2023-03-04T00:05:18.000Z,73.32
2023-03-04T00:06:18.000Z,73.39
2023-03-04T00:07:18.000Z,73.34
2023-03-04T00:08:18.000Z,73.62
2023-03-04T00:09:18.000Z,73.17
2023-03-04T00:10:18.000Z,73.31
2023-03-04T00:11:18.000Z,73.17
2023-03-04T00:12:18.000Z,73.56
2023-03-04T00:13:20.000Z,74.05
2023-03-04T00:14:18.000Z,73.76
2023-03-04T00:15:18.000Z,74.37
2023-03-04T00:16:18.000Z,74.50
2023-03-04T00:17:19.000Z,74.02
2023-03-04T00:18:19.000Z,73.94
2023-03-04T00:19:18.000Z,74.01
2023-03-04T00:20:18.000Z,74.00
2023-03-04T00:21:18.000Z,74.15
2023-03-04T00:22:18.000Z,74.02
2023-03-04T00:23:18.000Z,73.71
2023-03-04T00:24:18.000Z,73.93
2023-03-04T00:25:18.000Z,74.25
2023-03-04T00:26:18.000Z,74.41
2023-03-04T00:27:18.000Z,74.11
2023-03-04T00:28:18.000Z,74.73
2023-03-04T00:29:18.000Z,74.43
2023-03-04T00:30:18.000Z,74.15
2023-03-04T00:31:18.000Z,74.22
2023-03-04T00:32:18.000Z,74.03
2023-03-04T00:33:18.000Z,74.16
2023-03-04T00:34:19.000Z,74.34
2023-03-04T00:35:18.000Z,74.41
2023-03-04T00:36:18.000Z,74.14
2023-03-04T00:37:18.000Z,74.10
2023-03-04T00:38:18.000Z,74.95
2023-03-04T00:39:18.000Z,75.48
2023-03-04T00:40:19.000Z,75.88
2023-03-04T00:41:18.000Z,75.57
2023-03-04T00:42:18.000Z,75.21
2023-03-04T00:43:19.000Z,75.24
2023-03-04T00:44:18.000Z,75.65
2023-03-04T00:45:18.000Z,74.81
2023-03-04T00:46:18.000Z,74.87
2023-03-04T00:47:18.000Z,75.19
2023-03-04T00:48:18.000Z,75.04
2023-03-04T00:49:18.000Z,75.19
2023-03-04T00:50:19.000Z,74.76
2023-03-04T00:51:18.000Z,74.96
2023-03-04T00:52:18.000Z,74.80
2023-03-04T00:53:20.000Z,74.87
2023-03-04T00:54:18.000Z,74.85
2023-03-04T00:55:18.000Z,74.36
2023-03-04T00:56:18.000Z,74.85
2023-03-04T00:57:18.000Z,74.47
2023-03-04T00:58:18.000Z,75.08
2023-03-04T00:59:18.000Z,74.85
2023-03-04T01:00:19.000Z,74.96
2023-03-04T01:01:18.000Z,75.47
2023-03-04T01:02:18.000Z,75.13
2023-03-04T01:03:18.000Z,75.49
2023-03-04T01:04:18.000Z,75.14
2023-03-04T01:05:18.000Z,75.72
2023-03-04T01:06:18.000Z,75.55
2023-03-04T01:07:18.000Z,75.54
2023-03-04T01:08:18.000Z,75.11
2023-03-04T01:09:18.000Z,75.35
2023-03-04T01:10:18.000Z,75.45
2023-03-04T01:11:18.000Z,75.83
2023-03-04T01:12:18.000Z,75.25
2023-03-04T01:13:18.000Z,75.67
2023-03-04T01:14:18.000Z,75.56
2023-03-04T01:15:18.000Z,76.39
2023-03-04T01:16:18.000Z,76.76
2023-03-04T01:17:18.000Z,76.57
2023-03-04T01:18:18.000Z,76.43
2023-03-04T01:19:18.000Z,75.93
2023-03-04T01:20:18.000Z,76.49
2023-03-04T01:21:18.000Z,76.30
2023-03-04T01:22:18.000Z,76.53
2023-03-04T01:23:18.000Z,75.96
2023-03-04T01:24:18.000Z,76.43
2023-03-04T01:25:18.000Z,76.12
2023-03-04T01:26:18.000Z,76.19
2023-03-04T01:27:18.000Z,75.95
2023-03-04T01:28:18.000Z,76.04
2023-03-04T01:29:18.000Z,76.22
2023-03-04T01:30:18.000Z,75.84
2023-03-04T01:31:18.000Z,76.86
2023-03-04T01:32:17.000Z,76.68
2023-03-04T01:33:17.000Z,76.31
2023-03-04T01:34:17.000Z,76.21
2023-03-04T01:35:17.000Z,76.62
2023-03-04T01:36:17.000Z,76.01
2023-03-04T01:37:17.000Z,76.16
2023-03-04T01:38:17.000Z,76.43
2023-03-04T01:39:18.000Z,76.72
2023-03-04T01:40:18.000Z,76.66
2023-03-04T01:41:23.000Z,77.04
2023-03-04T01:42:20.000Z,76.35
2023-03-04T01:43:25.000Z,76.86
2023-03-04T01:44:18.000Z,76.14
2023-03-04T01:45:18.000Z,76.63
2023-03-04T01:46:20.000Z,76.42
2023-03-04T01:47:21.000Z,76.48
2023-03-04T01:48:25.000Z,76.57
2023-03-04T01:49:18.000Z,76.27
2023-03-04T01:50:24.000Z,76.62
2023-03-04T01:51:19.000Z,76.28
2023-03-04T01:52:18.000Z,76.07
2023-03-04T01:53:21.000Z,76.54
2023-03-04T01:54:20.000Z,76.96
2023-03-04T01:55:19.000Z,76.78
2023-03-04T01:56:22.000Z,76.80
2023-03-04T01:57:21.000Z,77.00
2023-03-04T01:58:18.000Z,76.86
2023-03-04T01:59:21.000Z,76.19
2023-03-04T02:00:29.000Z,76.80
2023-03-04T02:01:17.000Z,76.74
2023-03-04T02:02:17.000Z,77.08
2023-03-04T02:03:18.000Z,77.16
2023-03-04T02:04:21.000Z,76.48
2023-03-04T02:05:19.000Z,76.43
2023-03-04T02:06:18.000Z,76.67
2023-03-04T02:07:18.000Z,76.59
2023-03-04T02:08:21.000Z,76.71
2023-03-04T02:09:19.000Z,76.94
2023-03-04T02:10:18.000Z,77.45
2023-03-04T02:11:18.000Z,77.45
2023-03-04T02:12:17.000Z,77.21
2023-03-04T02:13:18.000Z,77.16
2023-03-04T02:14:19.000Z,77.04
2023-03-04T02:15:18.000Z,77.38
2023-03-04T02:16:18.000Z,77.47
2023-03-04T02:17:26.000Z,77.71
2023-03-04T02:18:20.000Z,78.16
2023-03-04T02:19:35.000Z,78.31
2023-03-04T02:20:35.000Z,77.85
2023-03-04T02:22:07.000Z,77.62
2023-03-04T02:23:02.000Z,77.84
2023-03-04T02:23:28.000Z,78.23
2023-03-04T02:24:38.000Z,77.75
2023-03-04T02:25:26.000Z,77.74
2023-03-04T02:26:20.000Z,77.94
2023-03-04T02:27:18.000Z,78.07
2023-03-04T02:28:18.000Z,78.50
2023-03-04T02:29:18.000Z,79.91
2023-03-04T02:30:21.000Z,79.57
2023-03-04T02:31:40.000Z,79.02
2023-03-04T02:32:18.000Z,78.47
2023-03-04T02:33:18.000Z,78.89
2023-03-04T02:34:25.000Z,78.53
2023-03-04T02:35:19.000Z,78.56
2023-03-04T02:36:18.000Z,78.46
2023-03-04T02:37:18.000Z,78.72
2023-03-04T02:38:17.000Z,78.69
2023-03-04T02:39:28.000Z,78.58
2023-03-04T02:40:25.000Z,78.43
2023-03-04T02:41:22.000Z,78.55
2023-03-04T02:42:17.000Z,78.21
2023-03-04T02:43:18.000Z,78.66
2023-03-04T02:44:21.000Z,78.84
2023-03-04T02:45:33.000Z,78.92
2023-03-04T02:46:18.000Z,78.65
2023-03-04T02:47:29.000Z,78.89
2023-03-04T02:48:20.000Z,78.98
2023-03-04T02:49:19.000Z,78.84
2023-03-04T02:50:18.000Z,78.89
2023-03-04T02:51:18.000Z,79.01
2023-03-04T02:52:20.000Z,79.21
2023-03-04T02:53:20.000Z,78.87
2023-03-04T02:54:21.000Z,79.08
2023-03-04T02:55:17.000Z,79.28
2023-03-04T02:56:17.000Z,78.92
2023-03-04T02:57:17.000Z,78.53
2023-03-04T02:58:17.000Z,78.44
2023-03-04T02:59:19.000Z,78.50
2023-03-04T03:00:18.000Z,78.90
2023-03-04T03:01:17.000Z,78.79
2023-03-04T03:02:17.000Z,78.90
2023-03-04T03:03:17.000Z,78.48
2023-03-04T03:04:19.000Z,78.14
2023-03-04T03:05:18.000Z,78.80
2023-03-04T03:06:17.000Z,78.19
2023-03-04T03:07:18.000Z,78.10
2023-03-04T03:08:17.000Z,78.56
2023-03-04T03:09:18.000Z,78.57
2023-03-04T03:10:18.000Z,78.13
2023-03-04T03:11:17.000Z,78.20
2023-03-04T03:12:18.000Z,78.16
2023-03-04T03:13:18.000Z,78.31
2023-03-04T03:14:18.000Z,79.14
2023-03-04T03:15:18.000Z,78.56
2023-03-04T03:16:18.000Z,78.88
2023-03-04T03:17:17.000Z,79.39
2023-03-04T03:18:18.000Z,78.94
2023-03-04T03:19:17.000Z,79.16
2023-03-04T03:20:18.000Z,79.46
2023-03-04T03:21:18.000Z,80.60
2023-03-04T03:22:18.000Z,81.51
2023-03-04T03:23:19.000Z,81.47
2023-03-04T03:24:18.000Z,81.68
2023-03-04T03:25:18.000Z,81.83
2023-03-04T03:26:18.000Z,81.96
2023-03-04T03:27:18.000Z,82.41
2023-03-04T03:28:18.000Z,82.25
2023-03-04T03:29:18.000Z,82.31
2023-03-04T03:30:18.000Z,81.69
2023-03-04T03:31:18.000Z,81.69
2023-03-04T03:32:18.000Z,81.27
2023-03-04T03:33:18.000Z,81.50
2023-03-04T03:34:18.000Z,81.46
2023-03-04T03:35:18.000Z,81.64
2023-03-04T03:36:18.000Z,81.13
2023-03-04T03:37:18.000Z,81.01
2023-03-04T03:38:18.000Z,81.13
2023-03-04T03:39:18.000Z,80.83
2023-03-04T03:40:18.000Z,81.01
2023-03-04T03:41:17.000Z,80.79
2023-03-04T03:42:18.000Z,80.82
2023-03-04T03:43:18.000Z,80.78
2023-03-04T03:44:18.000Z,80.81
2023-03-04T03:45:18.000Z,80.69
2023-03-04T03:46:17.000Z,80.64
2023-03-04T03:47:17.000Z,80.50
2023-03-04T03:48:18.000Z,80.63
2023-03-04T03:49:18.000Z,80.82
2023-03-04T03:50:18.000Z,80.91
2023-03-04T03:51:18.000Z,80.69
2023-03-04T03:52:18.000Z,80.16
2023-03-04T03:53:18.000Z,80.18
2023-03-04T03:54:18.000Z,80.19
2023-03-04T03:55:18.000Z,80.31
2023-03-04T03:56:18.000Z,79.96
2023-03-04T03:57:18.000Z,79.84
2023-03-04T03:58:18.000Z,79.66
2023-03-04T03:59:18.000Z,79.95
2023-03-04T04:00:18.000Z,79.87
2023-03-04T04:01:18.000Z,79.43
2023-03-04T04:02:18.000Z,79.49
2023-03-04T04:03:18.000Z,79.38
2023-03-04T04:04:17.000Z,79.46
2023-03-04T04:05:17.000Z,79.47
2023-03-04T04:06:18.000Z,79.70
2023-03-04T04:07:17.000Z,79.25
2023-03-04T04:08:17.000Z,79.71
2023-03-04T04:09:17.000Z,79.60
2023-03-04T04:10:18.000Z,79.66
2023-03-04T04:11:17.000Z,79.56
2023-03-04T04:12:18.000Z,79.57
2023-03-04T04:13:17.000Z,79.41
2023-03-04T04:14:17.000Z,79.50
2023-03-04T04:15:17.000Z,79.62
2023-03-04T04:16:18.000Z,79.95
2023-03-04T04:17:17.000Z,79.90
2023-03-04T04:18:17.000Z,79.43
2023-03-04T04:19:18.000Z,79.24
2023-03-04T04:20:17.000Z,79.29
2023-03-04T04:21:17.000Z,79.10
2023-03-04T04:22:18.000Z,79.43
2023-03-04T04:23:18.000Z,79.61
2023-03-04T04:24:17.000Z,79.29
2023-03-04T04:25:17.000Z,79.37
2023-03-04T04:26:17.000Z,79.31
2023-03-04T04:27:17.000Z,79.37
2023-03-04T04:28:17.000Z,79.16
2023-03-04T04:29:17.000Z,79.82
2023-03-04T04:30:17.000Z,80.07
2023-03-04T04:31:17.000Z,80.50
2023-03-04T04:32:17.000Z,80.81
2023-03-04T04:33:17.000Z,80.72
2023-03-04T04:34:17.000Z,80.37
2023-03-04T04:35:18.000Z,80.54
2023-03-04T04:36:18.000Z,81.14
2023-03-04T04:37:17.000Z,80.76
2023-03-04T04:38:17.000Z,81.41
2023-03-04T04:39:18.000Z,81.37
2023-03-04T04:40:18.000Z,82.37
2023-03-04T04:41:24.000Z,82.68
2023-03-04T04:42:17.000Z,82.89
2023-03-04T04:43:17.000Z,83.46
2023-03-04T04:44:17.000Z,83.12
2023-03-04T04:45:18.000Z,83.08
2023-03-04T04:46:18.000Z,83.36
2023-03-04T04:47:17.000Z,83.97
2023-03-04T04:48:18.000Z,83.84
2023-03-04T04:49:18.000Z,83.63
2023-03-04T04:50:18.000Z,83.62
2023-03-04T04:51:18.000Z,84.47
2023-03-04T04:52:18.000Z,84.52
2023-03-04T04:53:17.000Z,84.57
2023-03-04T04:54:17.000Z,84.06
2023-03-04T04:55:18.000Z,83.91
2023-03-04T04:56:20.000Z,83.67
2023-03-04T04:57:17.000Z,83.01
2023-03-04T04:58:18.000Z,82.71
2023-03-04T04:59:17.000Z,83.08
2023-03-04T05:00:18.000Z,82.87
2023-03-04T05:01:18.000Z,82.78
2023-03-04T05:02:17.000Z,82.45
2023-03-04T05:03:18.000Z,82.47
2023-03-04T05:04:17.000Z,82.33
2023-03-04T05:05:18.000Z,82.31
2023-03-04T05:06:18.000Z,81.84
2023-03-04T05:07:17.000Z,81.96
2023-03-04T05:08:18.000Z,81.78
2023-03-04T05:09:19.000Z,81.61
2023-03-04T05:10:18.000Z,81.19
2023-03-04T05:11:18.000Z,80.82
2023-03-04T05:12:17.000Z,80.62
2023-03-04T05:13:18.000Z,80.56
2023-03-04T05:14:18.000Z,80.83
2023-03-04T05:15:18.000Z,80.48
2023-03-04T05:16:17.000Z,80.34
2023-03-04T05:17:18.000Z,80.17
2023-03-04T05:18:19.000Z,80.12
2023-03-04T05:19:19.000Z,79.98
2023-03-04T05:20:18.000Z,80.31
2023-03-04T05:21:17.000Z,80.31
2023-03-04T05:22:17.000Z,79.98
2023-03-04T05:23:18.000Z,79.56
2023-03-04T05:24:18.000Z,79.88
2023-03-04T05:25:18.000Z,79.76
2023-03-04T05:26:18.000Z,79.23
2023-03-04T05:27:17.000Z,79.51
2023-03-04T05:28:18.000Z,79.75
2023-03-04T05:29:18.000Z,79.32
2023-03-04T05:30:18.000Z,79.67
2023-03-04T05:31:17.000Z,79.27
2023-03-04T05:32:17.000Z,79.22
2023-03-04T05:33:18.000Z,79.63
2023-03-04T05:34:18.000Z,79.20
2023-03-04T05:35:17.000Z,79.22
2023-03-04T05:36:18.000Z,78.93
2023-03-04T05:37:18.000Z,78.88
2023-03-04T05:38:18.000Z,78.72
2023-03-04T05:39:18.000Z,79.02
2023-03-04T05:40:18.000Z,78.71
2023-03-04T05:41:21.000Z,79.03
2023-03-04T05:42:18.000Z,78.87
2023-03-04T05:43:18.000Z,78.75
2023-03-04T05:44:18.000Z,78.71
2023-03-04T05:45:18.000Z,78.70
2023-03-04T05:46:24.000Z,78.59
2023-03-04T05:47:18.000Z,78.44
2023-03-04T05:48:18.000Z,78.65
2023-03-04T05:49:18.000Z,78.56
2023-03-04T05:50:18.000Z,78.36
2023-03-04T05:51:18.000Z,78.32
2023-03-04T05:52:18.000Z,78.83
2023-03-04T05:53:18.000Z,78.64
2023-03-04T05:54:18.000Z,78.47
2023-03-04T05:55:18.000Z,79.27
2023-03-04T05:56:19.000Z,78.86
2023-03-04T05:57:18.000Z,79.09
2023-03-04T05:58:19.000Z,78.62
2023-03-04T05:59:19.000Z,78.52
2023-03-04T06:00:18.000Z,78.48
2023-03-04T06:01:18.000Z,78.41
2023-03-04T06:02:18.000Z,79.59
2023-03-04T06:03:21.000Z,79.95
2023-03-04T06:04:18.000Z,79.30
2023-03-04T06:05:19.000Z,79.06
2023-03-04T06:06:18.000Z,79.07
2023-03-04T06:07:18.000Z,80.69
2023-03-04T06:08:18.000Z,80.25
2023-03-04T06:09:19.000Z,80.16
2023-03-04T06:10:18.000Z,79.55
2023-03-04T06:11:18.000Z,79.93
2023-03-04T06:12:18.000Z,79.29
2023-03-04T06:13:18.000Z,80.12
2023-03-04T06:14:18.000Z,80.30
2023-03-04T06:15:18.000Z,79.74
2023-03-04T06:16:17.000Z,79.64
2023-03-04T06:17:18.000Z,79.30
2023-03-04T06:18:18.000Z,79.09
2023-03-04T06:19:18.000Z,78.97
2023-03-04T06:20:18.000Z,79.07
2023-03-04T06:21:18.000Z,79.26
2023-03-04T06:22:18.000Z,79.17
2023-03-04T06:23:18.000Z,79.48
2023-03-04T06:24:18.000Z,79.24
2023-03-04T06:25:18.000Z,79.16
2023-03-04T06:26:18.000Z,79.02
2023-03-04T06:27:17.000Z,79.24
2023-03-04T06:28:18.000Z,79.42
2023-03-04T06:29:18.000Z,79.19
2023-03-04T06:30:18.000Z,78.76
2023-03-04T06:31:18.000Z,78.54
2023-03-04T06:32:18.000Z,79.05
2023-03-04T06:33:18.000Z,79.40
2023-03-04T06:34:18.000Z,79.36
2023-03-04T06:35:18.000Z,79.11
2023-03-04T06:36:18.000Z,79.54
2023-03-04T06:37:18.000Z,79.00
2023-03-04T06:38:17.000Z,78.99
2023-03-04T06:39:17.000Z,78.75
2023-03-04T06:40:17.000Z,78.71
2023-03-04T06:41:17.000Z,79.62
2023-03-04T06:42:18.000Z,80.28
2023-03-04T06:43:18.000Z,81.04
2023-03-04T06:44:17.000Z,80.10
2023-03-04T06:45:17.000Z,80.31
2023-03-04T06:46:17.000Z,79.79
2023-03-04T06:47:17.000Z,79.92
2023-03-04T06:48:17.000Z,80.01
2023-03-04T06:49:17.000Z,80.21
2023-03-04T06:50:18.000Z,80.03
2023-03-04T06:51:18.000Z,79.88
2023-03-04T06:52:18.000Z,80.02
2023-03-04T06:53:17.000Z,79.63
2023-03-04T06:54:18.000Z,79.45
2023-03-04T06:55:18.000Z,79.43
2023-03-04T06:56:18.000Z,79.50
2023-03-04T06:57:18.000Z,80.82
2023-03-04T06:58:17.000Z,80.52
2023-03-04T06:59:17.000Z,81.01
2023-03-04T07:00:18.000Z,80.83
2023-03-04T07:01:20.000Z,80.84
2023-03-04T07:02:17.000Z,80.64
2023-03-04T07:03:17.000Z,80.16
2023-03-04T07:04:18.000Z,79.90
2023-03-04T07:05:17.000Z,79.87
2023-03-04T07:06:21.000Z,80.36
2023-03-04T07:07:18.000Z,80.31
2023-03-04T07:08:17.000Z,80.54
2023-03-04T07:09:17.000Z,80.68
2023-03-04T07:10:18.000Z,80.18
2023-03-04T07:11:18.000Z,80.35
2023-03-04T07:12:17.000Z,80.46
2023-03-04T07:13:17.000Z,79.97
2023-03-04T07:14:17.000Z,79.89
2023-03-04T07:15:17.000Z,79.66
2023-03-04T07:16:20.000Z,79.59
2023-03-04T07:17:17.000Z,80.00
2023-03-04T07:18:17.000Z,79.72
2023-03-04T07:19:17.000Z,79.33
2023-03-04T07:20:18.000Z,79.49
2023-03-04T07:21:18.000Z,80.39
2023-03-04T07:22:17.000Z,79.98
2023-03-04T07:23:18.000Z,80.14
2023-03-04T07:24:17.000Z,80.27
2023-03-04T07:25:17.000Z,80.19
2023-03-04T07:26:18.000Z,79.84
2023-03-04T07:27:17.000Z,79.44
2023-03-04T07:28:17.000Z,79.57
2023-03-04T07:29:17.000Z,79.41
2023-03-04T07:30:18.000Z,79.69
2023-03-04T07:31:24.000Z,80.12
2023-03-04T07:32:17.000Z,79.54
2023-03-04T07:33:17.000Z,79.95
2023-03-04T07:34:17.000Z,79.82
2023-03-04T07:35:17.000Z,79.90
2023-03-04T07:36:18.000Z,79.79
2023-03-04T07:37:17.000Z,80.41
2023-03-04T07:38:17.000Z,80.17
2023-03-04T07:39:18.000Z,80.03
2023-03-04T07:40:18.000Z,79.93
2023-03-04T07:41:18.000Z,80.09
2023-03-04T07:42:18.000Z,80.36
2023-03-04T07:43:18.000Z,80.17
2023-03-04T07:44:18.000Z,80.14
2023-03-04T07:45:19.000Z,79.98
2023-03-04T07:46:18.000Z,79.88
2023-03-04T07:47:18.000Z,80.19
2023-03-04T07:48:18.000Z,79.96
2023-03-04T07:49:18.000Z,79.71
2023-03-04T07:50:18.000Z,79.54
2023-03-04T07:51:20.000Z,80.03
2023-03-04T07:52:18.000Z,80.83
2023-03-04T07:53:18.000Z,80.71
2023-03-04T07:54:18.000Z,80.63
2023-03-04T07:55:18.000Z,80.02
2023-03-04T07:56:24.000Z,79.93
2023-03-04T07:57:18.000Z,80.20
2023-03-04T07:58:18.000Z,80.58
2023-03-04T07:59:18.000Z,79.80
2023-03-04T08:00:18.000Z,79.81
2023-03-04T08:01:28.000Z,80.25
2023-03-04T08:02:18.000Z,80.68
2023-03-04T08:03:18.000Z,80.53
2023-03-04T08:04:18.000Z,80.04
2023-03-04T08:05:18.000Z,80.14
2023-03-04T08:06:19.000Z,80.06
2023-03-04T08:07:18.000Z,80.24
2023-03-04T08:08:18.000Z,80.28
2023-03-04T08:09:17.000Z,80.52
2023-03-04T08:10:17.000Z,80.25
2023-03-04T08:11:19.000Z,80.56
2023-03-04T08:12:17.000Z,80.07
2023-03-04T08:13:17.000Z,80.27
2023-03-04T08:14:18.000Z,80.09
2023-03-04T08:15:17.000Z,80.15
2023-03-04T08:16:19.000Z,79.67
2023-03-04T08:17:18.000Z,80.17
2023-03-04T08:18:17.000Z,79.89
2023-03-04T08:19:17.000Z,80.59
2023-03-04T08:20:17.000Z,80.35
2023-03-04T08:21:23.000Z,80.42
2023-03-04T08:22:17.000Z,80.46
2023-03-04T08:23:18.000Z,80.18
2023-03-04T08:24:17.000Z,80.16
2023-03-04T08:25:17.000Z,80.81
2023-03-04T08:26:25.000Z,80.68
2023-03-04T08:27:18.000Z,80.83
2023-03-04T08:28:17.000Z,81.05
2023-03-04T08:29:21.000Z,80.95
2023-03-04T08:30:18.000Z,80.61
2023-03-04T08:31:18.000Z,80.86
2023-03-04T08:32:17.000Z,81.68
2023-03-04T08:33:17.000Z,82.13
2023-03-04T08:34:19.000Z,81.73
2023-03-04T08:35:17.000Z,81.37
2023-03-04T08:36:18.000Z,81.52
2023-03-04T08:37:17.000Z,81.22
2023-03-04T08:38:17.000Z,81.31
2023-03-04T08:39:18.000Z,81.41
2023-03-04T08:40:18.000Z,81.06
2023-03-04T08:41:18.000Z,80.82
2023-03-04T08:42:17.000Z,80.56
2023-03-04T08:43:18.000Z,80.74
2023-03-04T08:44:18.000Z,80.80
2023-03-04T08:45:18.000Z,81.13
2023-03-04T08:46:18.000Z,81.02
2023-03-04T08:47:17.000Z,80.56
2023-03-04T08:48:19.000Z,80.92
2023-03-04T08:49:18.000Z,80.64
2023-03-04T08:50:18.000Z,80.32
2023-03-04T08:51:18.000Z,80.37
2023-03-04T08:52:18.000Z,80.29
2023-03-04T08:53:18.000Z,80.07
2023-03-04T08:54:17.000Z,80.36
2023-03-04T08:55:19.000Z,80.25
2023-03-04T08:56:18.000Z,80.34
2023-03-04T08:57:18.000Z,80.43
2023-03-04T08:58:18.000Z,80.39
2023-03-04T08:59:17.000Z,79.97
2023-03-04T09:00:18.000Z,79.63
2023-03-04T09:01:18.000Z,80.27
2023-03-04T09:02:17.000Z,80.36
2023-03-04T09:03:19.000Z,80.36
2023-03-04T09:04:17.000Z,80.14
2023-03-04T09:05:18.000Z,80.12
2023-03-04T09:06:18.000Z,80.75
2023-03-04T09:07:18.000Z,80.26
2023-03-04T09:08:18.000Z,80.47
2023-03-04T09:09:17.000Z,80.51
2023-03-04T09:10:18.000Z,80.54
2023-03-04T09:11:17.000Z,80.24
2023-03-04T09:12:17.000Z,80.32
2023-03-04T09:13:17.000Z,80.05
2023-03-04T09:14:17.000Z,80.27
2023-03-04T09:15:17.000Z,80.27
2023-03-04T09:16:17.000Z,80.10
2023-03-04T09:17:17.000Z,79.83
2023-03-04T09:18:20.000Z,79.91
2023-03-04T09:19:17.000Z,80.52
2023-03-04T09:20:19.000Z,80.25
2023-03-04T09:21:17.000Z,80.75
2023-03-04T09:22:17.000Z,80.78
2023-03-04T09:23:18.000Z,80.98
2023-03-04T09:24:17.000Z,80.84
2023-03-04T09:25:17.000Z,81.17
2023-03-04T09:26:23.000Z,80.63
2023-03-04T09:27:17.000Z,81.19
2023-03-04T09:28:17.000Z,80.96
2023-03-04T09:29:17.000Z,81.19
2023-03-04T09:30:18.000Z,80.77
2023-03-04T09:31:18.000Z,80.65
2023-03-04T09:32:17.000Z,80.30
2023-03-04T09:33:17.000Z,80.75
2023-03-04T09:34:17.000Z,80.63
2023-03-04T09:35:17.000Z,80.40
2023-03-04T09:36:18.000Z,80.27
2023-03-04T09:37:17.000Z,80.16
2023-03-04T09:38:17.000Z,80.08
2023-03-04T09:39:17.000Z,80.03
2023-03-04T09:40:20.000Z,80.09
2023-03-04T09:41:27.000Z,79.98
2023-03-04T09:42:28.000Z,79.96
2023-03-04T09:43:24.000Z,79.84
2023-03-04T09:44:26.000Z,79.78
2023-03-04T09:45:21.000Z,79.45
2023-03-04T09:46:31.000Z,80.09
2023-03-04T09:47:20.000Z,80.43
2023-03-04T09:48:23.000Z,80.11
2023-03-04T09:49:19.000Z,80.25
2023-03-04T09:50:18.000Z,79.95
2023-03-04T09:51:41.000Z,80.23
2023-03-04T09:52:27.000Z,80.14
2023-03-04T09:53:41.000Z,80.60
2023-03-04T09:54:31.000Z,79.96
2023-03-04T09:55:26.000Z,80.14
2023-03-04T09:56:17.000Z,79.98
2023-03-04T09:57:40.000Z,79.88
2023-03-04T09:58:27.000Z,79.44
2023-03-04T09:59:27.000Z,79.45
2023-03-04T10:00:38.000Z,79.32
2023-03-04T10:01:37.000Z,78.88
2023-03-04T10:02:40.000Z,79.09
2023-03-04T10:03:34.000Z,79.26
2023-03-04T10:04:27.000Z,79.05
2023-03-04T10:05:24.000Z,79.31
2023-03-04T10:06:19.000Z,79.37
2023-03-04T10:07:22.000Z,78.89
2023-03-04T10:08:27.000Z,78.53
2023-03-04T10:09:24.000Z,78.40
2023-03-04T10:10:24.000Z,78.44
2023-03-04T10:11:27.000Z,78.72
2023-03-04T10:12:25.000Z,79.08
2023-03-04T10:13:27.000Z,78.60
2023-03-04T10:14:36.000Z,78.92
2023-03-04T10:15:28.000Z,78.72
2023-03-04T10:16:22.000Z,78.70
2023-03-04T10:17:37.000Z,78.66
2023-03-04T10:18:25.000Z,78.37
2023-03-04T10:19:27.000Z,78.71
2023-03-04T10:20:24.000Z,78.74
2023-03-04T10:21:28.000Z,78.40
2023-03-04T10:22:29.000Z,78.24
2023-03-04T10:23:20.000Z,77.88
2023-03-04T10:24:19.000Z,78.39
2023-03-04T10:25:26.000Z,78.37
2023-03-04T10:26:20.000Z,78.31
2023-03-04T10:27:17.000Z,78.16
2023-03-04T10:28:23.000Z,77.99
2023-03-04T10:29:20.000Z,77.87
2023-03-04T10:30:33.000Z,77.75
2023-03-04T10:31:28.000Z,77.77
2023-03-04T10:32:18.000Z,78.02
2023-03-04T10:33:20.000Z,77.71
2023-03-04T10:34:17.000Z,77.74
2023-03-04T10:35:21.000Z,77.64
2023-03-04T10:36:32.000Z,77.49
2023-03-04T10:37:17.000Z,77.29
2023-03-04T10:38:19.000Z,77.27
2023-03-04T10:39:22.000Z,77.44
2023-03-04T10:40:23.000Z,77.36
2023-03-04T10:41:22.000Z,77.51
2023-03-04T10:42:25.000Z,77.55
2023-03-04T10:43:19.000Z,78.22
2023-03-04T10:44:17.000Z,78.21
2023-03-04T10:45:22.000Z,78.34
2023-03-04T10:46:19.000Z,78.05
2023-03-04T10:47:17.000Z,78.02
2023-03-04T10:48:25.000Z,77.72
2023-03-04T10:49:18.000Z,77.78
2023-03-04T10:50:24.000Z,78.05
2023-03-04T10:51:23.000Z,77.63
2023-03-04T10:52:27.000Z,77.43
2023-03-04T10:53:26.000Z,77.73
2023-03-04T10:54:38.000Z,77.78
2023-03-04T10:55:25.000Z,77.90
2023-03-04T10:56:27.000Z,77.80
2023-03-04T10:57:21.000Z,77.87
2023-03-04T10:58:19.000Z,77.94
2023-03-04T10:59:27.000Z,77.87
2023-03-04T11:00:27.000Z,77.77
2023-03-04T11:01:23.000Z,77.68
2023-03-04T11:02:35.000Z,77.57
2023-03-04T11:03:27.000Z,77.22
2023-03-04T11:04:18.000Z,77.07
2023-03-04T11:05:24.000Z,76.89
2023-03-04T11:06:21.000Z,77.28
2023-03-04T11:07:19.000Z,77.07
2023-03-04T11:08:21.000Z,77.06
2023-03-04T11:09:24.000Z,76.95
2023-03-04T11:10:28.000Z,77.03
2023-03-04T11:11:27.000Z,76.98
2023-03-04T11:12:20.000Z,76.73
2023-03-04T11:13:24.000Z,76.95
2023-03-04T11:14:23.000Z,76.46
2023-03-04T11:15:20.000Z,76.19
2023-03-04T11:16:27.000Z,76.35
2023-03-04T11:17:26.000Z,76.12
2023-03-04T11:18:33.000Z,76.18
2023-03-04T11:19:20.000Z,76.20
2023-03-04T11:20:27.000Z,76.46
2023-03-04T11:21:21.000Z,76.26
2023-03-04T11:22:21.000Z,76.14
2023-03-04T11:23:37.000Z,75.94
2023-03-04T11:24:22.000Z,76.13
2023-03-04T11:25:27.000Z,76.04
2023-03-04T11:26:22.000Z,75.83
2023-03-04T11:27:25.000Z,76.00
2023-03-04T11:28:27.000Z,76.01
2023-03-04T11:29:27.000Z,75.86
2023-03-04T11:30:27.000Z,75.54
2023-03-04T11:31:37.000Z,75.09
2023-03-04T11:32:24.000Z,75.57
2023-03-04T11:33:23.000Z,75.44
2023-03-04T11:34:40.000Z,75.57
2023-03-04T11:35:29.000Z,75.76
2023-03-04T11:36:31.000Z,75.71
2023-03-04T11:37:38.000Z,75.59
2023-03-04T11:38:30.000Z,75.46
2023-03-04T11:39:28.000Z,75.31
2023-03-04T11:40:27.000Z,75.22
2023-03-04T11:41:27.000Z,74.84
2023-03-04T11:42:41.000Z,74.72
2023-03-04T11:43:24.000Z,74.62
2023-03-04T11:44:18.000Z,74.48
2023-03-04T11:45:29.000Z,74.46
2023-03-04T11:46:31.000Z,74.56
2023-03-04T11:47:28.000Z,74.44
2023-03-04T11:48:41.000Z,74.45
2023-03-04T11:49:28.000Z,74.59
2023-03-04T11:50:28.000Z,74.61
2023-03-04T11:51:37.000Z,74.64
2023-03-04T11:52:40.000Z,74.17
2023-03-04T11:53:28.000Z,74.13
2023-03-04T11:54:41.000Z,74.10
2023-03-04T11:55:41.000Z,74.33
2023-03-04T11:56:38.000Z,74.13
2023-03-04T11:57:54.000Z,73.98
2023-03-04T11:58:28.000Z,73.96
2023-03-04T11:59:28.000Z,73.98
2023-03-04T12:00:28.000Z,73.94
2023-03-04T12:01:36.000Z,74.02
2023-03-04T12:02:28.000Z,73.71
2023-03-04T12:03:28.000Z,73.60
2023-03-04T12:04:37.000Z,72.70
2023-03-04T12:05:28.000Z,73.08
2023-03-04T12:06:34.000Z,72.97
2023-03-04T12:07:38.000Z,73.13
2023-03-04T12:08:32.000Z,72.71
2023-03-04T12:09:38.000Z,72.54
2023-03-04T12:10:38.000Z,72.64
2023-03-04T12:11:37.000Z,72.64
2023-03-04T12:12:45.000Z,72.42
2023-03-04T12:13:27.000Z,72.43
2023-03-04T12:14:27.000Z,72.59
2023-03-04T12:15:26.000Z,72.50
2023-03-04T12:16:29.000Z,72.74
2023-03-04T12:17:27.000Z,72.14
2023-03-04T12:18:28.000Z,72.22
2023-03-04T12:19:32.000Z,72.37
2023-03-04T12:20:27.000Z,72.67
2023-03-04T12:21:27.000Z,72.58
2023-03-04T12:22:40.000Z,72.45
2023-03-04T12:23:27.000Z,72.52
2023-03-04T12:24:27.000Z,72.50
2023-03-04T12:25:27.000Z,72.40
2023-03-04T12:26:35.000Z,72.25
2023-03-04T12:27:26.000Z,71.95
2023-03-04T12:28:29.000Z,71.82
2023-03-04T12:29:40.000Z,71.85
2023-03-04T12:30:34.000Z,71.79
2023-03-04T12:31:32.000Z,71.56
2023-03-04T12:32:27.000Z,71.33
2023-03-04T12:33:28.000Z,71.49
2023-03-04T12:34:50.000Z,71.72
2023-03-04T12:35:39.000Z,71.71
2023-03-04T12:36:27.000Z,71.92
2023-03-04T12:37:34.000Z,72.03
2023-03-04T12:38:27.000Z,71.80
2023-03-04T12:39:27.000Z,71.99
2023-03-04T12:40:27.000Z,72.03
2023-03-04T12:41:27.000Z,71.57
2023-03-04T12:42:33.000Z,71.59
2023-03-04T12:43:28.000Z,71.64
2023-03-04T12:44:19.000Z,71.61
2023-03-04T12:45:28.000Z,71.54
2023-03-04T12:46:39.000Z,71.55
2023-03-04T12:47:38.000Z,71.45
2023-03-04T12:48:33.000Z,71.19
2023-03-04T12:49:36.000Z,70.99
2023-03-04T12:50:29.000Z,71.22
2023-03-04T12:51:41.000Z,71.30
2023-03-04T12:52:38.000Z,71.31